sensor_id;sensor_type;location;lat;lon;timestamp;P1;durP1;ratioP1;P2;durP2;ratioP2
45322;SDS011;31382;50.200;8.674;2023-04-29T00:02:44;0.82;;;0.47;;
45322;SDS011;31382;50.200;8.674;2023-04-29T00:07:45;1.27;;;0.40;;
45322;SDS011;31382;50.200;8.674;2023-04-29T00:12:46;2.28;;;0.70;;
45322;SDS011;31382;50.200;8.674;2023-04-29T00:17:48;0.93;;;0.50;;
45322;SDS011;31382;50.200;8.674;2023-04-29T00:22:51;1.55;;;0.95;;
45322;SDS011;31382;50.200;8.674;2023-04-29T00:27:52;1.70;;;0.70;;
45322;SDS011;31382;50.200;8.674;2023-04-29T00:32:53;1.40;;;0.88;;
45322;SDS011;31382;50.200;8.674;2023-04-29T00:37:55;1.10;;;0.88;;
45322;SDS011;31382;50.200;8.674;2023-04-29T00:42:56;3.95;;;0.93;;
45322;SDS011;31382;50.200;8.674;2023-04-29T00:47:58;1.98;;;1.10;;
45322;SDS011;31382;50.200;8.674;2023-04-29T00:52:59;2.45;;;1.15;;
45322;SDS011;31382;50.200;8.674;2023-04-29T00:58:01;2.13;;;1.10;;
45322;SDS011;31382;50.200;8.674;2023-04-29T01:03:04;2.17;;;1.48;;
45322;SDS011;31382;50.200;8.674;2023-04-29T01:08:29;1.58;;;1.30;;
45322;SDS011;31382;50.200;8.674;2023-04-29T01:18:56;1.92;;;1.10;;
45322;SDS011;31382;50.200;8.674;2023-04-29T01:24:02;2.63;;;0.80;;
45322;SDS011;31382;50.200;8.674;2023-04-29T01:34:41;2.58;;;0.75;;
45322;SDS011;31382;50.200;8.674;2023-04-29T01:39:55;1.37;;;0.70;;
45322;SDS011;31382;50.200;8.674;2023-04-29T01:45:03;1.15;;;0.95;;
45322;SDS011;31382;50.200;8.674;2023-04-29T01:50:07;1.27;;;0.70;;
45322;SDS011;31382;50.200;8.674;2023-04-29T01:55:08;1.33;;;0.70;;
45322;SDS011;31382;50.200;8.674;2023-04-29T02:00:11;0.60;;;0.60;;
45322;SDS011;31382;50.200;8.674;2023-04-29T02:05:13;0.75;;;0.50;;
45322;SDS011;31382;50.200;8.674;2023-04-29T02:10:14;0.73;;;0.60;;
45322;SDS011;31382;50.200;8.674;2023-04-29T02:15:16;2.13;;;0.60;;
45322;SDS011;31382;50.200;8.674;2023-04-29T02:20:17;0.30;;;0.30;;
45322;SDS011;31382;50.200;8.674;2023-04-29T02:25:19;0.52;;;0.40;;
45322;SDS011;31382;50.200;8.674;2023-04-29T02:30:21;1.55;;;0.40;;
45322;SDS011;31382;50.200;8.674;2023-04-29T02:35:22;1.17;;;0.40;;
45322;SDS011;31382;50.200;8.674;2023-04-29T02:40:23;1.55;;;0.60;;
45322;SDS011;31382;50.200;8.674;2023-04-29T02:45:26;1.00;;;0.80;;
45322;SDS011;31382;50.200;8.674;2023-04-29T02:50:27;2.47;;;1.88;;
45322;SDS011;31382;50.200;8.674;2023-04-29T02:55:29;3.20;;;2.15;;
45322;SDS011;31382;50.200;8.674;2023-04-29T03:00:30;2.45;;;1.98;;
45322;SDS011;31382;50.200;8.674;2023-04-29T03:05:31;3.88;;;2.15;;
45322;SDS011;31382;50.200;8.674;2023-04-29T03:10:33;4.78;;;3.40;;
45322;SDS011;31382;50.200;8.674;2023-04-29T03:15:35;6.10;;;4.20;;
45322;SDS011;31382;50.200;8.674;2023-04-29T03:20:37;6.15;;;4.18;;
45322;SDS011;31382;50.200;8.674;2023-04-29T03:25:38;5.70;;;4.13;;
45322;SDS011;31382;50.200;8.674;2023-04-29T03:30:40;5.95;;;4.32;;
45322;SDS011;31382;50.200;8.674;2023-04-29T03:35:42;5.68;;;4.53;;
45322;SDS011;31382;50.200;8.674;2023-04-29T03:40:43;8.73;;;4.65;;
45322;SDS011;31382;50.200;8.674;2023-04-29T03:45:45;6.72;;;5.20;;
45322;SDS011;31382;50.200;8.674;2023-04-29T03:50:47;8.52;;;5.78;;
45322;SDS011;31382;50.200;8.674;2023-04-29T03:55:48;8.82;;;5.75;;
45322;SDS011;31382;50.200;8.674;2023-04-29T04:00:50;7.30;;;4.97;;
45322;SDS011;31382;50.200;8.674;2023-04-29T04:05:51;8.88;;;5.28;;
45322;SDS011;31382;50.200;8.674;2023-04-29T04:10:52;8.93;;;5.63;;
45322;SDS011;31382;50.200;8.674;2023-04-29T04:15:54;10.55;;;5.93;;
45322;SDS011;31382;50.200;8.674;2023-04-29T04:20:55;8.95;;;6.30;;
45322;SDS011;31382;50.200;8.674;2023-04-29T04:25:56;11.93;;;6.50;;
45322;SDS011;31382;50.200;8.674;2023-04-29T04:30:58;9.88;;;6.15;;
45322;SDS011;31382;50.200;8.674;2023-04-29T04:35:59;14.20;;;6.88;;
45322;SDS011;31382;50.200;8.674;2023-04-29T04:41:01;9.27;;;6.60;;
45322;SDS011;31382;50.200;8.674;2023-04-29T04:46:09;11.27;;;7.50;;
45322;SDS011;31382;50.200;8.674;2023-04-29T04:51:12;10.90;;;6.93;;
45322;SDS011;31382;50.200;8.674;2023-04-29T04:56:13;14.02;;;7.32;;
45322;SDS011;31382;50.200;8.674;2023-04-29T05:01:15;11.65;;;6.57;;
45322;SDS011;31382;50.200;8.674;2023-04-29T05:06:16;11.50;;;6.25;;
45322;SDS011;31382;50.200;8.674;2023-04-29T05:11:18;11.10;;;6.07;;
45322;SDS011;31382;50.200;8.674;2023-04-29T05:16:21;11.07;;;6.72;;
45322;SDS011;31382;50.200;8.674;2023-04-29T05:21:22;9.45;;;5.68;;
45322;SDS011;31382;50.200;8.674;2023-04-29T05:26:23;9.30;;;5.93;;
45322;SDS011;31382;50.200;8.674;2023-04-29T05:31:25;9.77;;;5.40;;
45322;SDS011;31382;50.200;8.674;2023-04-29T05:36:28;11.00;;;6.60;;
45322;SDS011;31382;50.200;8.674;2023-04-29T05:41:29;8.63;;;5.22;;
45322;SDS011;31382;50.200;8.674;2023-04-29T05:46:31;13.23;;;5.18;;
45322;SDS011;31382;50.200;8.674;2023-04-29T05:51:32;9.43;;;5.50;;
45322;SDS011;31382;50.200;8.674;2023-04-29T05:56:34;7.47;;;4.55;;
45322;SDS011;31382;50.200;8.674;2023-04-29T06:01:35;7.75;;;4.80;;
45322;SDS011;31382;50.200;8.674;2023-04-29T06:06:36;7.25;;;4.25;;
45322;SDS011;31382;50.200;8.674;2023-04-29T06:11:38;6.45;;;4.28;;
45322;SDS011;31382;50.200;8.674;2023-04-29T06:16:40;8.55;;;4.82;;
45322;SDS011;31382;50.200;8.674;2023-04-29T06:21:41;6.70;;;4.65;;
45322;SDS011;31382;50.200;8.674;2023-04-29T06:26:42;6.70;;;4.30;;
45322;SDS011;31382;50.200;8.674;2023-04-29T06:31:44;10.88;;;5.05;;
45322;SDS011;31382;50.200;8.674;2023-04-29T06:36:45;5.90;;;3.97;;
45322;SDS011;31382;50.200;8.674;2023-04-29T06:41:47;7.45;;;4.00;;
45322;SDS011;31382;50.200;8.674;2023-04-29T06:46:48;8.02;;;4.55;;
45322;SDS011;31382;50.200;8.674;2023-04-29T06:51:49;6.75;;;3.92;;
45322;SDS011;31382;50.200;8.674;2023-04-29T06:56:51;7.15;;;4.05;;
45322;SDS011;31382;50.200;8.674;2023-04-29T07:01:52;6.53;;;3.97;;
45322;SDS011;31382;50.200;8.674;2023-04-29T07:06:54;7.32;;;4.43;;
45322;SDS011;31382;50.200;8.674;2023-04-29T07:11:56;8.52;;;5.63;;
45322;SDS011;31382;50.200;8.674;2023-04-29T07:16:57;6.40;;;3.83;;
45322;SDS011;31382;50.200;8.674;2023-04-29T07:21:58;5.10;;;3.17;;
45322;SDS011;31382;50.200;8.674;2023-04-29T07:27:00;5.00;;;2.78;;
45322;SDS011;31382;50.200;8.674;2023-04-29T07:32:01;7.20;;;3.67;;
45322;SDS011;31382;50.200;8.674;2023-04-29T07:37:03;5.95;;;3.03;;
45322;SDS011;31382;50.200;8.674;2023-04-29T07:42:04;5.78;;;2.35;;
45322;SDS011;31382;50.200;8.674;2023-04-29T07:47:05;6.07;;;3.50;;
45322;SDS011;31382;50.200;8.674;2023-04-29T07:52:07;7.03;;;3.20;;
45322;SDS011;31382;50.200;8.674;2023-04-29T07:57:10;5.00;;;2.90;;
45322;SDS011;31382;50.200;8.674;2023-04-29T08:02:11;8.15;;;4.03;;
45322;SDS011;31382;50.200;8.674;2023-04-29T08:07:13;6.18;;;3.30;;
45322;SDS011;31382;50.200;8.674;2023-04-29T08:12:15;8.40;;;3.33;;
45322;SDS011;31382;50.200;8.674;2023-04-29T08:17:16;5.20;;;3.17;;
45322;SDS011;31382;50.200;8.674;2023-04-29T08:22:17;6.43;;;3.20;;
45322;SDS011;31382;50.200;8.674;2023-04-29T08:27:19;5.60;;;3.03;;
45322;SDS011;31382;50.200;8.674;2023-04-29T08:32:21;4.57;;;2.30;;
45322;SDS011;31382;50.200;8.674;2023-04-29T08:37:23;4.40;;;2.33;;
45322;SDS011;31382;50.200;8.674;2023-04-29T08:42:34;4.85;;;2.92;;
45322;SDS011;31382;50.200;8.674;2023-04-29T08:47:37;15.63;;;3.75;;
45322;SDS011;31382;50.200;8.674;2023-04-29T08:52:39;5.78;;;2.65;;
45322;SDS011;31382;50.200;8.674;2023-04-29T08:57:40;4.97;;;2.55;;
45322;SDS011;31382;50.200;8.674;2023-04-29T09:02:46;4.07;;;2.50;;
45322;SDS011;31382;50.200;8.674;2023-04-29T09:07:51;6.55;;;2.78;;
45322;SDS011;31382;50.200;8.674;2023-04-29T09:12:56;3.50;;;2.45;;
45322;SDS011;31382;50.200;8.674;2023-04-29T09:18:00;3.30;;;1.67;;
45322;SDS011;31382;50.200;8.674;2023-04-29T09:23:02;5.85;;;2.42;;
45322;SDS011;31382;50.200;8.674;2023-04-29T09:28:13;4.50;;;2.33;;
45322;SDS011;31382;50.200;8.674;2023-04-29T09:33:16;6.45;;;2.10;;
45322;SDS011;31382;50.200;8.674;2023-04-29T09:38:18;3.17;;;2.00;;
45322;SDS011;31382;50.200;8.674;2023-04-29T09:43:19;4.22;;;2.10;;
45322;SDS011;31382;50.200;8.674;2023-04-29T09:48:21;3.40;;;1.95;;
45322;SDS011;31382;50.200;8.674;2023-04-29T09:53:32;4.07;;;1.83;;
45322;SDS011;31382;50.200;8.674;2023-04-29T09:58:38;2.72;;;1.33;;
45322;SDS011;31382;50.200;8.674;2023-04-29T10:03:40;2.53;;;1.30;;
45322;SDS011;31382;50.200;8.674;2023-04-29T10:08:43;2.47;;;1.20;;
45322;SDS011;31382;50.200;8.674;2023-04-29T10:13:46;4.00;;;0.82;;
45322;SDS011;31382;50.200;8.674;2023-04-29T10:18:53;3.35;;;1.20;;
45322;SDS011;31382;50.200;8.674;2023-04-29T10:23:57;2.17;;;1.25;;
45322;SDS011;31382;50.200;8.674;2023-04-29T10:28:59;1.55;;;0.90;;
45322;SDS011;31382;50.200;8.674;2023-04-29T10:34:02;1.67;;;1.02;;
45322;SDS011;31382;50.200;8.674;2023-04-29T10:39:03;1.67;;;1.02;;
45322;SDS011;31382;50.200;8.674;2023-04-29T10:44:09;1.52;;;0.70;;
45322;SDS011;31382;50.200;8.674;2023-04-29T10:49:11;2.22;;;0.80;;
45322;SDS011;31382;50.200;8.674;2023-04-29T10:54:16;1.60;;;0.90;;
45322;SDS011;31382;50.200;8.674;2023-04-29T11:04:33;2.55;;;1.45;;
45322;SDS011;31382;50.200;8.674;2023-04-29T11:09:35;3.20;;;1.75;;
45322;SDS011;31382;50.200;8.674;2023-04-29T11:14:42;1.45;;;0.70;;
45322;SDS011;31382;50.200;8.674;2023-04-29T11:19:49;1.38;;;1.00;;
45322;SDS011;31382;50.200;8.674;2023-04-29T11:24:59;1.17;;;0.65;;
45322;SDS011;31382;50.200;8.674;2023-04-29T11:30:02;1.50;;;0.85;;
45322;SDS011;31382;50.200;8.674;2023-04-29T11:35:07;2.03;;;0.80;;
45322;SDS011;31382;50.200;8.674;2023-04-29T11:40:12;1.13;;;0.80;;
45322;SDS011;31382;50.200;8.674;2023-04-29T11:45:17;1.95;;;0.60;;
45322;SDS011;31382;50.200;8.674;2023-04-29T11:50:19;1.23;;;0.77;;
45322;SDS011;31382;50.200;8.674;2023-04-29T11:55:21;1.10;;;0.73;;
45322;SDS011;31382;50.200;8.674;2023-04-29T12:00:22;1.20;;;0.82;;
45322;SDS011;31382;50.200;8.674;2023-04-29T12:05:24;2.58;;;1.10;;
45322;SDS011;31382;50.200;8.674;2023-04-29T12:10:26;1.42;;;0.70;;
45322;SDS011;31382;50.200;8.674;2023-04-29T12:15:28;1.17;;;0.65;;
45322;SDS011;31382;50.200;8.674;2023-04-29T12:20:31;1.95;;;0.90;;
45322;SDS011;31382;50.200;8.674;2023-04-29T12:25:32;1.63;;;1.30;;
45322;SDS011;31382;50.200;8.674;2023-04-29T12:30:34;3.00;;;0.90;;
45322;SDS011;31382;50.200;8.674;2023-04-29T12:35:36;1.20;;;0.68;;
45322;SDS011;31382;50.200;8.674;2023-04-29T12:40:37;1.33;;;0.80;;
45322;SDS011;31382;50.200;8.674;2023-04-29T12:45:39;2.13;;;0.80;;
45322;SDS011;31382;50.200;8.674;2023-04-29T12:50:40;1.83;;;0.77;;
45322;SDS011;31382;50.200;8.674;2023-04-29T12:55:42;1.20;;;0.82;;
45322;SDS011;31382;50.200;8.674;2023-04-29T13:00:44;2.40;;;0.60;;
45322;SDS011;31382;50.200;8.674;2023-04-29T13:05:45;1.42;;;1.27;;
45322;SDS011;31382;50.200;8.674;2023-04-29T13:10:48;1.50;;;0.85;;
45322;SDS011;31382;50.200;8.674;2023-04-29T13:15:50;1.52;;;0.68;;
45322;SDS011;31382;50.200;8.674;2023-04-29T13:20:51;3.50;;;1.10;;
45322;SDS011;31382;50.200;8.674;2023-04-29T13:25:53;1.70;;;0.90;;
45322;SDS011;31382;50.200;8.674;2023-04-29T13:30:55;2.20;;;1.05;;
45322;SDS011;31382;50.200;8.674;2023-04-29T13:35:57;6.45;;;1.10;;
45322;SDS011;31382;50.200;8.674;2023-04-29T13:40:58;2.45;;;0.93;;
45322;SDS011;31382;50.200;8.674;2023-04-29T13:46:00;1.92;;;1.02;;
45322;SDS011;31382;50.200;8.674;2023-04-29T13:51:01;1.45;;;0.90;;
45322;SDS011;31382;50.200;8.674;2023-04-29T13:56:06;1.42;;;1.30;;
45322;SDS011;31382;50.200;8.674;2023-04-29T14:01:10;5.82;;;1.25;;
45322;SDS011;31382;50.200;8.674;2023-04-29T14:06:32;2.30;;;1.17;;
45322;SDS011;31382;50.200;8.674;2023-04-29T14:11:34;1.27;;;1.10;;
45322;SDS011;31382;50.200;8.674;2023-04-29T14:16:37;1.25;;;1.15;;
45322;SDS011;31382;50.200;8.674;2023-04-29T14:21:38;2.35;;;1.45;;
45322;SDS011;31382;50.200;8.674;2023-04-29T14:26:40;2.13;;;1.90;;
45322;SDS011;31382;50.200;8.674;2023-04-29T14:31:42;3.80;;;2.05;;
45322;SDS011;31382;50.200;8.674;2023-04-29T14:36:43;3.28;;;1.92;;
45322;SDS011;31382;50.200;8.674;2023-04-29T14:41:46;2.88;;;2.17;;
45322;SDS011;31382;50.200;8.674;2023-04-29T14:46:48;4.18;;;2.25;;
45322;SDS011;31382;50.200;8.674;2023-04-29T14:51:50;3.20;;;2.17;;
45322;SDS011;31382;50.200;8.674;2023-04-29T14:56:51;1.40;;;1.10;;
45322;SDS011;31382;50.200;8.674;2023-04-29T15:01:53;1.20;;;0.70;;
45322;SDS011;31382;50.200;8.674;2023-04-29T15:06:55;1.08;;;0.43;;
45322;SDS011;31382;50.200;8.674;2023-04-29T15:11:57;7.13;;;1.70;;
45322;SDS011;31382;50.200;8.674;2023-04-29T15:16:59;1.45;;;0.60;;
45322;SDS011;31382;50.200;8.674;2023-04-29T15:22:00;0.38;;;0.30;;
45322;SDS011;31382;50.200;8.674;2023-04-29T15:27:01;0.60;;;0.60;;
45322;SDS011;31382;50.200;8.674;2023-04-29T15:32:03;0.60;;;0.40;;
45322;SDS011;31382;50.200;8.674;2023-04-29T15:37:05;1.70;;;0.70;;
45322;SDS011;31382;50.200;8.674;2023-04-29T15:42:06;2.50;;;1.30;;
45322;SDS011;31382;50.200;8.674;2023-04-29T15:47:09;2.70;;;1.17;;
45322;SDS011;31382;50.200;8.674;2023-04-29T15:52:10;3.05;;;1.17;;
45322;SDS011;31382;50.200;8.674;2023-04-29T15:57:13;1.98;;;1.20;;
45322;SDS011;31382;50.200;8.674;2023-04-29T16:02:14;2.90;;;2.05;;
45322;SDS011;31382;50.200;8.674;2023-04-29T16:07:16;2.90;;;1.95;;
45322;SDS011;31382;50.200;8.674;2023-04-29T16:12:18;4.05;;;2.63;;
45322;SDS011;31382;50.200;8.674;2023-04-29T16:17:20;4.57;;;3.20;;
45322;SDS011;31382;50.200;8.674;2023-04-29T16:22:22;5.97;;;3.33;;
45322;SDS011;31382;50.200;8.674;2023-04-29T16:27:23;7.35;;;4.38;;
45322;SDS011;31382;50.200;8.674;2023-04-29T16:32:25;6.13;;;3.22;;
45322;SDS011;31382;50.200;8.674;2023-04-29T16:37:28;5.13;;;3.55;;
45322;SDS011;31382;50.200;8.674;2023-04-29T16:42:30;5.00;;;3.30;;
45322;SDS011;31382;50.200;8.674;2023-04-29T16:47:31;5.63;;;4.05;;
45322;SDS011;31382;50.200;8.674;2023-04-29T16:52:33;5.45;;;3.83;;
45322;SDS011;31382;50.200;8.674;2023-04-29T16:57:35;6.72;;;4.20;;
45322;SDS011;31382;50.200;8.674;2023-04-29T17:02:37;5.22;;;3.13;;
45322;SDS011;31382;50.200;8.674;2023-04-29T17:07:40;5.50;;;3.88;;
45322;SDS011;31382;50.200;8.674;2023-04-29T17:12:42;5.38;;;3.60;;
45322;SDS011;31382;50.200;8.674;2023-04-29T17:17:44;6.53;;;3.83;;
45322;SDS011;31382;50.200;8.674;2023-04-29T17:22:46;5.30;;;3.60;;
45322;SDS011;31382;50.200;8.674;2023-04-29T17:27:48;4.93;;;3.78;;
45322;SDS011;31382;50.200;8.674;2023-04-29T17:32:49;7.05;;;4.38;;
45322;SDS011;31382;50.200;8.674;2023-04-29T17:37:51;7.55;;;5.43;;
45322;SDS011;31382;50.200;8.674;2023-04-29T17:42:52;7.55;;;5.28;;
45322;SDS011;31382;50.200;8.674;2023-04-29T17:47:54;7.82;;;5.55;;
45322;SDS011;31382;50.200;8.674;2023-04-29T17:52:55;9.10;;;5.13;;
45322;SDS011;31382;50.200;8.674;2023-04-29T17:57:57;7.43;;;5.50;;
45322;SDS011;31382;50.200;8.674;2023-04-29T18:02:58;8.57;;;5.82;;
45322;SDS011;31382;50.200;8.674;2023-04-29T18:08:00;8.00;;;5.70;;
45322;SDS011;31382;50.200;8.674;2023-04-29T18:13:01;11.80;;;7.70;;
45322;SDS011;31382;50.200;8.674;2023-04-29T18:18:03;8.90;;;6.68;;
45322;SDS011;31382;50.200;8.674;2023-04-29T18:23:05;9.55;;;5.45;;
45322;SDS011;31382;50.200;8.674;2023-04-29T18:28:06;7.75;;;5.03;;
45322;SDS011;31382;50.200;8.674;2023-04-29T18:33:13;7.20;;;5.72;;
45322;SDS011;31382;50.200;8.674;2023-04-29T18:38:15;8.70;;;6.07;;
45322;SDS011;31382;50.200;8.674;2023-04-29T18:43:17;9.85;;;6.35;;
45322;SDS011;31382;50.200;8.674;2023-04-29T18:48:24;8.40;;;6.60;;
45322;SDS011;31382;50.200;8.674;2023-04-29T18:53:25;11.98;;;7.05;;
45322;SDS011;31382;50.200;8.674;2023-04-29T18:58:27;10.25;;;6.55;;
45322;SDS011;31382;50.200;8.674;2023-04-29T19:03:29;11.98;;;6.93;;
45322;SDS011;31382;50.200;8.674;2023-04-29T19:08:30;15.60;;;8.20;;
45322;SDS011;31382;50.200;8.674;2023-04-29T19:13:31;12.50;;;7.30;;
45322;SDS011;31382;50.200;8.674;2023-04-29T19:18:33;9.93;;;6.85;;
45322;SDS011;31382;50.200;8.674;2023-04-29T19:23:34;13.63;;;7.47;;
45322;SDS011;31382;50.200;8.674;2023-04-29T19:28:36;10.15;;;6.57;;
45322;SDS011;31382;50.200;8.674;2023-04-29T19:33:37;9.50;;;6.97;;
45322;SDS011;31382;50.200;8.674;2023-04-29T19:38:38;11.75;;;7.45;;
45322;SDS011;31382;50.200;8.674;2023-04-29T19:43:40;12.00;;;7.35;;
45322;SDS011;31382;50.200;8.674;2023-04-29T19:48:41;10.48;;;7.30;;
45322;SDS011;31382;50.200;8.674;2023-04-29T19:53:43;10.85;;;7.43;;
45322;SDS011;31382;50.200;8.674;2023-04-29T19:58:44;11.65;;;7.47;;
45322;SDS011;31382;50.200;8.674;2023-04-29T20:03:46;11.43;;;7.20;;
45322;SDS011;31382;50.200;8.674;2023-04-29T20:08:47;13.27;;;7.88;;
45322;SDS011;31382;50.200;8.674;2023-04-29T20:13:49;10.20;;;6.90;;
45322;SDS011;31382;50.200;8.674;2023-04-29T20:18:50;10.90;;;7.97;;
45322;SDS011;31382;50.200;8.674;2023-04-29T20:23:52;10.68;;;7.78;;
45322;SDS011;31382;50.200;8.674;2023-04-29T20:28:53;12.27;;;7.60;;
45322;SDS011;31382;50.200;8.674;2023-04-29T20:33:55;9.73;;;7.10;;
45322;SDS011;31382;50.200;8.674;2023-04-29T20:38:56;11.30;;;7.72;;
45322;SDS011;31382;50.200;8.674;2023-04-29T20:43:57;14.68;;;8.15;;
45322;SDS011;31382;50.200;8.674;2023-04-29T20:48:59;11.13;;;8.43;;
45322;SDS011;31382;50.200;8.674;2023-04-29T20:54:01;9.95;;;6.60;;
45322;SDS011;31382;50.200;8.674;2023-04-29T20:59:02;10.30;;;6.88;;
45322;SDS011;31382;50.200;8.674;2023-04-29T21:04:04;10.82;;;8.10;;
45322;SDS011;31382;50.200;8.674;2023-04-29T21:09:06;10.98;;;8.13;;
45322;SDS011;31382;50.200;8.674;2023-04-29T21:14:09;11.98;;;7.90;;
45322;SDS011;31382;50.200;8.674;2023-04-29T21:19:10;13.20;;;9.32;;
45322;SDS011;31382;50.200;8.674;2023-04-29T21:24:11;9.85;;;7.47;;
45322;SDS011;31382;50.200;8.674;2023-04-29T21:29:13;11.55;;;8.23;;
45322;SDS011;31382;50.200;8.674;2023-04-29T21:34:14;12.27;;;8.43;;
45322;SDS011;31382;50.200;8.674;2023-04-29T21:39:16;12.60;;;8.40;;
45322;SDS011;31382;50.200;8.674;2023-04-29T21:44:17;9.23;;;7.65;;
45322;SDS011;31382;50.200;8.674;2023-04-29T21:49:19;15.18;;;8.40;;
45322;SDS011;31382;50.200;8.674;2023-04-29T21:54:21;11.57;;;8.52;;
45322;SDS011;31382;50.200;8.674;2023-04-29T21:59:22;9.85;;;8.15;;
45322;SDS011;31382;50.200;8.674;2023-04-29T22:04:24;10.85;;;8.13;;
45322;SDS011;31382;50.200;8.674;2023-04-29T22:09:26;12.63;;;8.93;;
45322;SDS011;31382;50.200;8.674;2023-04-29T22:14:27;14.25;;;9.65;;
45322;SDS011;31382;50.200;8.674;2023-04-29T22:19:29;10.13;;;8.73;;
45322;SDS011;31382;50.200;8.674;2023-04-29T22:24:30;12.75;;;8.30;;
45322;SDS011;31382;50.200;8.674;2023-04-29T22:29:32;14.07;;;9.40;;
45322;SDS011;31382;50.200;8.674;2023-04-29T22:34:33;12.38;;;9.05;;
45322;SDS011;31382;50.200;8.674;2023-04-29T22:39:34;16.10;;;9.35;;
45322;SDS011;31382;50.200;8.674;2023-04-29T22:44:36;16.80;;;10.10;;
45322;SDS011;31382;50.200;8.674;2023-04-29T22:49:37;12.93;;;9.63;;
45322;SDS011;31382;50.200;8.674;2023-04-29T22:54:38;13.35;;;10.00;;
45322;SDS011;31382;50.200;8.674;2023-04-29T22:59:40;14.20;;;10.00;;
45322;SDS011;31382;50.200;8.674;2023-04-29T23:04:41;14.95;;;9.07;;
45322;SDS011;31382;50.200;8.674;2023-04-29T23:09:43;14.25;;;10.38;;
45322;SDS011;31382;50.200;8.674;2023-04-29T23:14:44;14.15;;;9.73;;
45322;SDS011;31382;50.200;8.674;2023-04-29T23:19:46;14.02;;;11.68;;
45322;SDS011;31382;50.200;8.674;2023-04-29T23:24:47;15.05;;;11.40;;
45322;SDS011;31382;50.200;8.674;2023-04-29T23:29:49;13.23;;;10.48;;
45322;SDS011;31382;50.200;8.674;2023-04-29T23:34:51;14.75;;;11.05;;
45322;SDS011;31382;50.200;8.674;2023-04-29T23:39:52;14.32;;;11.25;;
45322;SDS011;31382;50.200;8.674;2023-04-29T23:44:54;16.50;;;10.95;;
45322;SDS011;31382;50.200;8.674;2023-04-29T23:49:56;18.50;;;10.95;;
45322;SDS011;31382;50.200;8.674;2023-04-29T23:54:57;16.65;;;11.48;;
45322;SDS011;31382;50.200;8.674;2023-04-29T23:59:59;15.75;;;10.95;;
